Time;durP1;ratioP1;P1;durP2;ratioP2;P2;SDS_P1;SDS_P2;PMS_P1;PMS_P2;Temp;Humidity;BMP_temperature;BMP_pressure;BME280_temperature;BME280_humidity;BME280_pressure;Samples;Min_cycle;Max_cycle;Signal;HPM_P1;HPM_P2
2022/07/24 00:01:25;;;;;;;10.90;9.80;;;20.20;99.90;;;;;;4947811;28;20039;-72
2022/07/24 00:03:56;;;;;;;11.25;10.07;;;20.20;99.90;;;;;;4952318;28;20043;-72
2022/07/24 00:06:28;;;;;;;10.57;9.57;;;20.10;99.90;;;;;;4923586;29;20066;-73
2022/07/24 00:09:00;;;;;;;10.93;9.85;;;20.10;99.90;;;;;;4939830;29;20052;-73
2022/07/24 00:11:33;;;;;;;11.10;10.10;;;20.10;99.90;;;;;;4946675;28;20046;-72
2022/07/24 00:14:05;;;;;;;10.27;9.13;;;20.10;99.90;;;;;;4945008;28;20039;-75
2022/07/24 00:16:37;;;;;;;11.23;9.55;;;20.00;99.90;;;;;;4928310;29;20043;-72
2022/07/24 00:19:08;;;;;;;10.52;9.50;;;20.00;99.90;;;;;;4942596;29;20051;-72
2022/07/24 00:21:40;;;;;;;11.90;10.70;;;20.00;99.90;;;;;;4942843;28;20415;-72
2022/07/24 00:24:12;;;;;;;11.30;10.30;;;19.90;99.90;;;;;;4945710;28;20047;-73
2022/07/24 00:26:43;;;;;;;10.73;9.63;;;19.90;99.90;;;;;;4926488;29;20054;-72
2022/07/24 00:29:15;;;;;;;11.05;9.93;;;19.90;99.90;;;;;;4942460;29;20499;-73
2022/07/24 00:31:47;;;;;;;11.73;10.52;;;19.90;99.90;;;;;;4948004;28;20039;-73
2022/07/24 00:34:19;;;;;;;11.88;10.70;;;19.90;99.90;;;;;;4945251;29;20411;-74
2022/07/24 00:36:50;;;;;;;10.45;9.55;;;19.90;99.90;;;;;;4925317;29;20062;-72
2022/07/24 00:39:17;;;;;;;11.82;10.68;;;19.90;99.90;;;;;;4936594;29;20142;-73
2022/07/24 00:41:52;;;;;;;12.13;10.85;;;19.80;99.90;;;;;;4946111;28;20054;-74
2022/07/24 00:44:24;;;;;;;11.43;10.25;;;19.70;99.90;;;;;;4936385;29;20455;-73
2022/07/24 00:46:56;;;;;;;10.60;9.55;;;19.60;99.90;;;;;;4942992;29;20517;-73
2022/07/24 00:49:28;;;;;;;11.52;10.10;;;19.60;99.90;;;;;;4940673;29;20051;-73
2022/07/24 00:52:00;;;;;;;10.75;9.80;;;19.60;99.90;;;;;;4941355;28;20049;-73
2022/07/24 00:54:32;;;;;;;11.43;10.33;;;19.60;99.90;;;;;;4940686;29;20059;-72
2022/07/24 00:57:04;;;;;;;11.60;10.48;;;19.60;99.90;;;;;;4948499;29;20050;-72
2022/07/24 00:59:36;;;;;;;10.50;9.60;;;19.70;99.90;;;;;;4943226;29;20054;-73
2022/07/24 01:02:08;;;;;;;11.32;10.13;;;19.60;99.90;;;;;;4945039;29;20051;-73
2022/07/24 01:04:40;;;;;;;12.13;10.55;;;19.60;99.90;;;;;;4930351;29;20043;-72
2022/07/24 01:07:12;;;;;;;11.93;10.73;;;19.50;99.90;;;;;;4927821;29;20052;-72
2022/07/24 01:09:44;;;;;;;12.30;11.10;;;19.50;99.90;;;;;;4948051;29;20039;-73
2022/07/24 01:12:16;;;;;;;11.98;10.77;;;19.40;99.90;;;;;;4938144;28;20047;-73
2022/07/24 01:14:48;;;;;;;12.13;11.00;;;19.40;99.90;;;;;;4934918;29;20716;-73
2022/07/24 01:17:20;;;;;;;20.52;12.25;;;19.30;99.90;;;;;;4927410;29;20054;-72
2022/07/24 01:19:51;;;;;;;13.15;11.85;;;19.30;99.90;;;;;;4946260;28;20495;-73
2022/07/24 01:22:25;;;;;;;11.98;10.85;;;19.40;99.90;;;;;;4946958;29;20529;-73
2022/07/24 01:24:57;;;;;;;13.18;11.88;;;19.40;99.90;;;;;;4945502;28;20046;-73
2022/07/24 01:27:28;;;;;;;11.73;10.63;;;19.40;99.90;;;;;;4944457;29;20062;-72
2022/07/24 01:30:00;;;;;;;12.40;11.23;;;19.40;99.90;;;;;;4927468;28;20048;-72
2022/07/24 01:32:32;;;;;;;12.00;10.80;;;19.40;99.90;;;;;;4945505;29;20051;-73
2022/07/24 01:35:05;;;;;;;11.90;10.70;;;19.40;99.90;;;;;;4948054;29;20090;-72
2022/07/24 01:37:37;;;;;;;12.40;11.27;;;19.40;99.90;;;;;;4942717;29;20074;-72
2022/07/24 01:40:09;;;;;;;11.93;10.82;;;19.40;99.90;;;;;;4930217;29;20051;-73
2022/07/24 01:42:41;;;;;;;11.30;10.20;;;19.30;99.90;;;;;;4929779;29;20051;-73
2022/07/24 01:45:13;;;;;;;12.38;11.10;;;19.30;99.90;;;;;;4926818;29;20065;-73
2022/07/24 01:47:46;;;;;;;12.48;11.35;;;19.30;99.90;;;;;;4943707;29;20076;-73
2022/07/24 01:50:17;;;;;;;13.10;11.75;;;19.30;99.90;;;;;;4941738;29;20048;-73
2022/07/24 01:52:49;;;;;;;14.02;11.98;;;19.30;99.90;;;;;;4931941;28;20046;-73
2022/07/24 01:55:22;;;;;;;12.40;10.88;;;19.20;99.90;;;;;;4944373;28;20413;-73
2022/07/24 01:57:54;;;;;;;11.00;9.95;;;19.20;99.90;;;;;;4944023;29;20518;-73
2022/07/24 02:00:25;;;;;;;12.60;11.40;;;19.10;99.90;;;;;;4926221;29;20046;-73
2022/07/24 02:02:57;;;;;;;13.60;12.40;;;19.10;99.90;;;;;;4945476;28;20044;-74
2022/07/24 02:05:29;;;;;;;11.95;10.77;;;19.20;99.90;;;;;;4944579;29;20042;-72
2022/07/24 02:08:01;;;;;;;12.18;11.00;;;19.10;99.90;;;;;;4944698;29;20043;-72
2022/07/24 02:10:33;;;;;;;12.27;11.00;;;19.10;99.90;;;;;;4946384;28;20411;-73
2022/07/24 02:13:05;;;;;;;13.15;11.80;;;19.10;99.90;;;;;;4933371;29;20043;-73
2022/07/24 02:15:37;;;;;;;13.33;12.00;;;19.20;99.90;;;;;;4944833;29;20660;-73
2022/07/24 02:18:09;;;;;;;14.20;12.82;;;19.20;99.90;;;;;;4945562;29;20051;-73
2022/07/24 02:20:41;;;;;;;13.40;12.07;;;19.20;99.90;;;;;;4948629;28;20081;-73
2022/07/24 02:23:17;;;;;;;14.68;13.32;;;19.20;99.90;;;;;;4947986;28;20747;-72
2022/07/24 02:25:50;;;;;;;13.88;12.57;;;19.20;99.90;;;;;;4928676;29;20412;-72
2022/07/24 02:28:22;;;;;;;;;;;19.30;99.90;;;;;;4928801;29;20047;-72
2022/07/24 02:30:54;;;;;;;13.90;12.57;;;19.30;99.90;;;;;;4928461;28;19973;-73
2022/07/24 02:33:26;;;;;;;13.95;12.35;;;19.20;99.90;;;;;;4933203;29;20070;-73
2022/07/24 02:35:57;;;;;;;14.88;13.48;;;19.20;99.90;;;;;;4945961;29;20035;-72
2022/07/24 02:38:30;;;;;;;15.38;13.68;;;19.10;99.90;;;;;;4926739;29;20055;-73
2022/07/24 02:41:02;;;;;;;16.10;14.52;;;19.00;99.90;;;;;;4923482;29;20047;-73
2022/07/24 02:43:33;;;;;;;15.40;13.68;;;18.90;99.90;;;;;;4930665;29;20058;-72
2022/07/24 02:46:05;;;;;;;14.75;13.35;;;18.80;99.90;;;;;;4942621;29;20047;-72
2022/07/24 02:48:37;;;;;;;13.40;12.07;;;18.80;99.90;;;;;;4944068;29;20035;-73
2022/07/24 02:51:10;;;;;;;13.02;11.70;;;18.80;99.90;;;;;;4944643;29;20054;-73
2022/07/24 02:53:41;;;;;;;13.65;12.35;;;18.80;99.90;;;;;;4947667;28;20051;-73
2022/07/24 02:56:13;;;;;;;13.70;12.10;;;18.80;99.90;;;;;;4929475;29;20058;-74
2022/07/24 02:58:45;;;;;;;13.25;11.95;;;18.80;99.90;;;;;;4924894;29;20127;-73
2022/07/24 03:01:17;;;;;;;12.02;10.82;;;18.70;99.90;;;;;;4943601;28;20047;-73
2022/07/24 03:03:48;;;;;;;13.90;12.50;;;18.70;99.90;;;;;;4946633;28;20067;-73
2022/07/24 03:06:20;;;;;;;14.40;12.45;;;18.70;99.90;;;;;;4943520;29;20074;-73
2022/07/24 03:08:52;;;;;;;13.50;12.20;;;18.70;99.90;;;;;;4927564;28;20073;-73
2022/07/24 03:11:23;;;;;;;13.57;12.30;;;18.70;99.90;;;;;;4957682;28;20042;-73
2022/07/24 03:13:55;;;;;;;13.40;12.02;;;18.70;99.90;;;;;;4941390;29;20510;-73
2022/07/24 03:16:27;;;;;;;15.85;12.02;;;18.80;99.90;;;;;;4927570;28;20043;-74
2022/07/24 03:18:58;;;;;;;13.57;12.25;;;18.80;99.90;;;;;;4927006;29;20511;-73
2022/07/24 03:21:30;;;;;;;14.60;13.18;;;18.80;99.90;;;;;;4929768;29;20047;-73
2022/07/24 03:24:02;;;;;;;14.68;13.15;;;18.90;99.90;;;;;;4940926;29;20047;-73
2022/07/24 03:26:34;;;;;;;15.60;14.00;;;18.80;99.90;;;;;;4945815;29;20054;-72
2022/07/24 03:29:05;;;;;;;14.00;12.60;;;18.80;99.90;;;;;;4925046;28;20057;-72
2022/07/24 03:31:37;;;;;;;15.43;13.68;;;18.80;99.90;;;;;;5040201;23;20045;-72
2022/07/24 03:34:09;;;;;;;16.33;14.73;;;18.80;99.90;;;;;;5036160;28;20055;-72
2022/07/24 03:36:41;;;;;;;13.07;11.73;;;18.80;99.90;;;;;;5016701;28;20051;-72
2022/07/24 03:39:13;;;;;;;12.85;11.55;;;18.70;99.90;;;;;;5051070;28;20088;-71
2022/07/24 03:41:44;;;;;;;13.80;11.32;;;18.50;99.90;;;;;;5049551;28;20037;-73
2022/07/24 03:44:16;;;;;;;13.75;11.52;;;18.30;99.90;;;;;;5048206;28;20049;-73
2022/07/24 03:46:48;;;;;;;12.80;11.60;;;18.20;99.90;;;;;;5033208;28;20048;-73
2022/07/24 03:49:19;;;;;;;11.88;10.77;;;18.20;99.90;;;;;;5050449;28;20041;-72
2022/07/24 03:51:51;;;;;;;12.65;11.45;;;18.20;99.90;;;;;;5049283;28;20039;-72
2022/07/24 03:54:23;;;;;;;12.95;11.65;;;18.20;99.90;;;;;;5049224;28;20041;-72
2022/07/24 03:56:55;;;;;;;13.88;12.57;;;18.20;99.90;;;;;;5048137;28;20053;-72
2022/07/24 03:59:26;;;;;;;19.35;13.68;;;18.20;99.90;;;;;;5050824;28;20408;-72
2022/07/24 04:01:58;;;;;;;13.80;12.30;;;18.20;99.90;;;;;;5049283;28;20049;-71
2022/07/24 04:04:30;;;;;;;13.88;12.63;;;18.20;99.90;;;;;;5047584;28;20081;-72
2022/07/24 04:07:02;;;;;;;12.93;11.65;;;18.20;99.90;;;;;;5040627;28;20048;-73
2022/07/24 04:09:34;;;;;;;12.30;11.10;;;18.10;99.90;;;;;;5047993;28;20052;-72
2022/07/24 04:12:06;;;;;;;14.60;12.48;;;18.10;99.90;;;;;;5032352;28;20047;-72
2022/07/24 04:14:37;;;;;;;13.25;11.18;;;18.20;99.90;;;;;;5048748;28;20069;-72
2022/07/24 04:17:09;;;;;;;12.65;11.35;;;18.20;99.90;;;;;;5029148;28;20060;-72
2022/07/24 04:19:41;;;;;;;12.73;11.52;;;18.20;99.90;;;;;;5047371;28;20048;-72
2022/07/24 04:22:13;;;;;;;11.18;10.05;;;18.20;99.90;;;;;;5035617;28;20048;-72
2022/07/24 04:24:44;;;;;;;12.43;11.25;;;18.30;99.90;;;;;;5044204;28;20076;-72
2022/07/24 04:27:16;;;;;;;12.38;11.18;;;18.30;99.90;;;;;;5031953;28;20053;-72
2022/07/24 04:29:48;;;;;;;12.20;11.00;;;18.30;99.90;;;;;;5045758;28;20577;-74
2022/07/24 04:32:19;;;;;;;13.35;12.05;;;18.30;99.90;;;;;;5035406;28;20051;-73
2022/07/24 04:34:51;;;;;;;15.00;13.38;;;18.30;99.90;;;;;;5052926;28;20041;-72
2022/07/24 04:37:23;;;;;;;15.88;14.38;;;18.30;99.90;;;;;;5051556;28;20128;-72
2022/07/24 04:39:55;;;;;;;18.38;16.08;;;18.30;99.90;;;;;;5037384;28;20519;-72
2022/07/24 04:42:26;;;;;;;15.75;14.25;;;18.30;99.90;;;;;;5054094;28;20044;-72
2022/07/24 04:44:58;;;;;;;16.70;14.25;;;18.20;99.90;;;;;;5051777;28;20041;-73
2022/07/24 04:47:30;;;;;;;13.68;12.30;;;18.20;99.90;;;;;;5054380;28;20120;-72
2022/07/24 04:50:03;;;;;;;13.40;11.75;;;18.10;99.90;;;;;;5042921;28;20045;-73
2022/07/24 04:52:35;;;;;;;;;;;18.10;99.90;;;;;;5041849;28;20501;-73
2022/07/24 04:55:07;;;;;;;13.02;11.82;;;18.10;99.90;;;;;;5050200;28;19921;-72
2022/07/24 04:57:40;;;;;;;12.67;11.47;;;18.10;99.90;;;;;;5036223;28;20056;-72
2022/07/24 05:00:13;;;;;;;12.73;11.57;;;18.20;99.90;;;;;;5031629;28;20295;-72
2022/07/24 05:02:44;;;;;;;;;;;18.30;99.90;;;;;;5037171;28;20487;-72
2022/07/24 05:05:16;;;;;;;12.15;11.05;;;18.30;99.90;;;;;;5050805;28;19920;-73
2022/07/24 05:07:48;;;;;;;12.52;11.27;;;18.30;99.90;;;;;;5035814;28;20041;-73
2022/07/24 05:10:20;;;;;;;12.68;11.48;;;18.40;99.90;;;;;;5052645;28;20049;-72
2022/07/24 05:12:52;;;;;;;12.70;11.50;;;18.50;99.90;;;;;;5035170;28;20045;-72
2022/07/24 05:15:23;;;;;;;14.13;12.73;;;18.50;99.90;;;;;;5033537;28;20491;-73
2022/07/24 05:17:55;;;;;;;15.60;13.95;;;18.50;99.90;;;;;;5048639;28;20057;-73
2022/07/24 05:20:27;;;;;;;15.95;14.25;;;18.60;99.90;;;;;;5052416;28;20083;-73
2022/07/24 05:22:59;;;;;;;16.48;14.88;;;18.60;99.90;;;;;;5049820;28;20073;-71
2022/07/24 05:25:31;;;;;;;16.00;14.60;;;18.70;99.90;;;;;;5053369;28;20055;-71
2022/07/24 05:28:02;;;;;;;17.35;15.57;;;18.70;99.90;;;;;;5042062;28;20045;-72
2022/07/24 05:30:34;;;;;;;15.75;14.15;;;18.80;99.90;;;;;;5050237;28;20039;-72
2022/07/24 05:33:06;;;;;;;16.52;14.82;;;18.90;99.90;;;;;;5053328;28;20040;-72
2022/07/24 05:35:38;;;;;;;15.38;13.88;;;18.90;99.90;;;;;;5048986;28;20041;-72
2022/07/24 05:38:09;;;;;;;16.73;15.13;;;18.90;99.90;;;;;;5032439;28;20060;-71
2022/07/24 05:40:41;;;;;;;16.38;14.63;;;19.00;99.90;;;;;;5037010;28;20051;-71
2022/07/24 05:43:13;;;;;;;16.52;14.82;;;19.00;99.90;;;;;;5029906;28;20045;-72
2022/07/24 05:45:45;;;;;;;15.85;14.30;;;19.00;99.90;;;;;;5048501;28;20055;-72
2022/07/24 05:48:12;;;;;;;16.75;15.07;;;19.10;99.90;;;;;;5035551;28;20048;-71
2022/07/24 05:50:44;;;;;;;17.05;15.10;;;19.10;99.90;;;;;;5049505;28;20037;-71
2022/07/24 05:53:15;;;;;;;15.10;13.70;;;19.20;99.90;;;;;;5034813;28;20045;-71
2022/07/24 05:55:47;;;;;;;15.65;14.05;;;19.20;99.90;;;;;;5039786;28;20043;-71
2022/07/24 05:58:19;;;;;;;16.30;14.77;;;19.20;99.90;;;;;;5053112;28;20056;-71
2022/07/24 06:00:51;;;;;;;17.08;15.38;;;19.20;99.90;;;;;;5036173;28;20059;-71
2022/07/24 06:03:22;;;;;;;18.05;15.70;;;19.20;99.90;;;;;;5026911;28;20046;-72
2022/07/24 06:05:54;;;;;;;15.70;13.93;;;19.30;99.90;;;;;;5047597;28;20128;-71
2022/07/24 06:08:26;;;;;;;17.40;15.60;;;19.30;99.90;;;;;;5049113;28;20497;-71
2022/07/24 06:10:53;;;;;;;17.00;15.27;;;19.30;99.90;;;;;;5028469;28;20041;-71
2022/07/24 06:13:25;;;;;;;16.15;14.65;;;19.50;99.90;;;;;;5050744;28;20049;-71
2022/07/24 06:15:56;;;;;;;19.25;15.68;;;19.60;99.90;;;;;;5032249;28;20051;-71
2022/07/24 06:18:28;;;;;;;17.08;15.27;;;19.70;99.90;;;;;;5051513;28;20053;-72
2022/07/24 06:21:00;;;;;;;16.98;14.20;;;19.70;99.90;;;;;;5051002;28;20403;-71
2022/07/24 06:23:32;;;;;;;16.55;14.85;;;19.70;99.90;;;;;;5049540;28;20051;-72
2022/07/24 06:26:04;;;;;;;17.10;15.40;;;19.80;99.90;;;;;;5031125;28;20048;-72
2022/07/24 06:28:36;;;;;;;17.67;15.77;;;19.90;99.90;;;;;;5034187;28;20053;-72
2022/07/24 06:31:07;;;;;;;17.27;15.35;;;19.90;99.90;;;;;;5048598;28;20041;-70
2022/07/24 06:33:39;;;;;;;17.17;15.38;;;19.90;99.90;;;;;;5051418;28;20049;-72
2022/07/24 06:36:11;;;;;;;16.27;14.70;;;20.00;99.90;;;;;;5035650;28;20076;-72
2022/07/24 06:38:43;;;;;;;17.05;15.25;;;20.10;99.90;;;;;;5050082;28;20116;-72
2022/07/24 06:41:14;;;;;;;16.95;15.25;;;20.20;99.90;;;;;;5050651;28;20045;-71
2022/07/24 06:43:46;;;;;;;17.98;16.17;;;20.30;99.90;;;;;;5033171;28;20059;-72
2022/07/24 06:46:13;;;;;;;17.13;15.48;;;20.30;99.90;;;;;;5023801;28;20056;-72
2022/07/24 06:48:45;;;;;;;17.45;15.70;;;20.40;99.90;;;;;;5049480;28;20041;-71
2022/07/24 06:51:12;;;;;;;20.02;17.15;;;20.50;99.90;;;;;;5032288;28;20049;-72
2022/07/24 06:53:46;;;;;;;17.98;15.13;;;20.60;99.90;;;;;;5050858;28;20037;-71
2022/07/24 06:56:18;;;;;;;16.55;14.88;;;20.70;99.90;;;;;;5027597;28;20076;-72
2022/07/24 06:58:50;;;;;;;16.55;14.85;;;20.70;99.90;;;;;;5047828;28;20068;-72
2022/07/24 07:01:25;;;;;;;16.75;15.15;;;20.80;99.90;;;;;;5033338;28;20508;-71
2022/07/24 07:03:57;;;;;;;18.25;16.35;;;20.90;99.90;;;;;;5046308;28;20049;-72
2022/07/24 07:06:29;;;;;;;17.42;15.68;;;21.10;99.90;;;;;;5014363;28;20053;-69
2022/07/24 07:09:01;;;;;;;17.40;14.68;;;21.10;99.90;;;;;;5049464;28;20040;-69
2022/07/24 07:11:33;;;;;;;16.90;15.20;;;21.20;99.90;;;;;;5048573;28;20052;-69
2022/07/24 07:14:05;;;;;;;15.82;14.13;;;21.30;99.90;;;;;;5051185;28;20517;-67
2022/07/24 07:16:36;;;;;;;15.65;13.18;;;21.40;99.90;;;;;;5026247;28;20132;-69
2022/07/24 07:19:08;;;;;;;17.92;15.07;;;21.50;99.90;;;;;;5049321;28;20041;-70
2022/07/24 07:21:40;;;;;;;17.95;15.75;;;21.60;99.90;;;;;;5033257;28;20111;-70
2022/07/24 07:24:12;;;;;;;16.00;14.50;;;21.70;99.90;;;;;;5050016;28;20048;-70
2022/07/24 07:26:38;;;;;;;17.05;15.00;;;21.70;99.90;;;;;;5047010;28;20052;-70
2022/07/24 07:29:10;;;;;;;16.67;15.07;;;21.80;99.90;;;;;;5034442;28;20053;-70
2022/07/24 07:31:42;;;;;;;17.35;14.60;;;21.90;99.90;;;;;;5048254;28;20037;-70
2022/07/24 07:34:14;;;;;;;16.05;14.13;;;22.00;99.90;;;;;;5043029;28;20548;-70
2022/07/24 07:36:45;;;;;;;18.52;16.52;;;22.10;99.90;;;;;;5049750;28;20034;-71
2022/07/24 07:39:17;;;;;;;16.55;14.85;;;22.10;99.90;;;;;;5034961;28;20042;-70
2022/07/24 07:41:49;;;;;;;15.80;14.23;;;22.20;99.90;;;;;;5030473;28;20059;-69
2022/07/24 07:44:20;;;;;;;17.27;15.02;;;22.30;99.90;;;;;;5032185;28;20029;-70
2022/07/24 07:46:53;;;;;;;16.27;14.68;;;22.40;99.90;;;;;;5032154;28;20040;-70
2022/07/24 07:49:24;;;;;;;14.82;13.43;;;22.50;99.90;;;;;;5046293;28;20048;-70
2022/07/24 07:51:56;;;;;;;14.02;12.73;;;22.60;99.90;;;;;;5015528;28;20056;-70
2022/07/24 07:54:28;;;;;;;15.30;13.82;;;22.80;99.90;;;;;;5033228;28;20045;-70
2022/07/24 07:56:59;;;;;;;15.18;13.50;;;22.90;99.90;;;;;;5047623;28;20036;-70
2022/07/24 07:59:31;;;;;;;13.45;12.15;;;23.10;99.90;;;;;;5050033;28;20037;-70
2022/07/24 08:02:03;;;;;;;13.85;12.43;;;23.20;99.90;;;;;;5048570;28;20037;-70
2022/07/24 08:04:35;;;;;;;14.20;12.68;;;23.40;99.90;;;;;;5048114;28;20066;-70
2022/07/24 08:07:06;;;;;;;13.43;11.60;;;23.50;99.90;;;;;;5049955;28;20060;-69
2022/07/24 08:09:38;;;;;;;13.10;11.80;;;23.70;99.90;;;;;;5040227;28;20045;-70
2022/07/24 08:12:10;;;;;;;13.82;12.32;;;23.80;99.90;;;;;;5048146;28;20045;-70
2022/07/24 08:14:42;;;;;;;13.18;11.88;;;23.90;99.90;;;;;;5030360;28;20065;-70
2022/07/24 08:17:13;;;;;;;13.63;12.23;;;24.00;99.90;;;;;;5050408;28;20081;-69
2022/07/24 08:19:45;;;;;;;12.18;10.90;;;24.00;99.90;;;;;;5049634;28;20053;-70
2022/07/24 08:22:17;;;;;;;12.07;10.43;;;24.20;99.90;;;;;;5049321;28;20124;-70
2022/07/24 08:24:44;;;;;;;11.57;10.07;;;24.30;99.90;;;;;;5046062;28;20053;-69
2022/07/24 08:27:15;;;;;;;12.40;11.10;;;24.40;99.90;;;;;;5049179;28;20055;-70
2022/07/24 08:29:47;;;;;;;11.48;10.35;;;24.60;99.90;;;;;;5031122;28;20401;-72
2022/07/24 08:32:14;;;;;;;11.82;10.73;;;24.70;99.90;;;;;;5049017;28;20047;-70
2022/07/24 08:34:46;;;;;;;10.52;9.52;;;24.80;99.90;;;;;;5045727;28;20131;-70
2022/07/24 08:37:20;;;;;;;11.10;10.05;;;25.00;99.90;;;;;;5050506;28;20037;-70
2022/07/24 08:39:54;;;;;;;11.35;9.85;;;25.10;99.90;;;;;;5036658;28;20400;-70
2022/07/24 08:42:25;;;;;;;10.85;9.77;;;25.20;99.90;;;;;;5048229;28;20055;-70
2022/07/24 08:44:57;;;;;;;11.18;10.18;;;25.30;99.90;;;;;;5046456;28;20420;-70
2022/07/24 08:47:31;;;;;;;12.43;10.90;;;25.40;99.90;;;;;;5027156;28;20049;-70
2022/07/24 08:49:59;;;;;;;16.65;11.20;;;25.50;99.90;;;;;;5029069;28;20053;-76
2022/07/24 08:52:33;;;;;;;10.52;9.48;;;25.50;99.90;;;;;;5047548;28;20515;-70
2022/07/24 08:55:05;;;;;;;11.30;10.15;;;25.60;99.90;;;;;;5030136;28;20072;-70
2022/07/24 08:57:37;;;;;;;12.43;9.38;;;25.60;99.90;;;;;;5046759;28;20076;-70
2022/07/24 09:00:04;;;;;;;11.30;9.75;;;25.70;99.90;;;;;;5044802;28;20106;-70
2022/07/24 09:02:37;;;;;;;10.75;9.27;;;25.80;99.90;;;;;;5030306;28;20041;-70
2022/07/24 09:05:09;;;;;;;11.00;10.07;;;25.90;99.90;;;;;;5032184;28;20051;-71
2022/07/24 09:07:41;;;;;;;10.10;9.10;;;26.00;99.90;;;;;;5048206;28;20037;-69
2022/07/24 09:10:18;;;;;;;11.35;9.65;;;26.20;99.90;;;;;;5024662;28;20052;-70
2022/07/24 09:12:50;;;;;;;10.45;9.52;;;26.20;99.90;;;;;;5030915;28;20045;-70
2022/07/24 09:15:23;;;;;;;10.60;9.50;;;26.20;99.90;;;;;;5046629;28;20054;-70
2022/07/24 09:17:59;;;;;;;9.73;8.82;;;26.30;99.90;;;;;;5052784;28;20067;-70
2022/07/24 09:20:31;;;;;;;10.27;9.32;;;26.40;99.90;;;;;;5051013;28;20048;-70
2022/07/24 09:23:02;;;;;;;9.48;8.57;;;26.60;99.90;;;;;;5040938;28;20059;-70
2022/07/24 09:25:34;;;;;;;9.55;8.75;;;26.70;99.90;;;;;;5051457;28;20044;-70
2022/07/24 09:28:06;;;;;;;10.35;9.45;;;26.70;99.90;;;;;;5051635;28;20041;-71
2022/07/24 09:30:45;;;;;;;9.93;9.02;;;26.60;99.90;;;;;;5034127;28;20120;-71
2022/07/24 09:33:19;;;;;;;10.73;9.63;;;26.70;99.90;;;;;;5052791;28;20768;-70
2022/07/24 09:35:52;;;;;;;11.07;9.85;;;26.80;99.90;;;;;;5049032;28;20041;-70
2022/07/24 09:38:24;;;;;;;;;;;26.70;99.90;;;;;;5046652;28;20038;-70
2022/07/24 09:40:58;;;;;;;10.07;9.15;;;26.60;99.90;;;;;;5043186;28;20376;-69
2022/07/24 09:43:32;;;;;;;9.45;8.63;;;26.50;99.90;;;;;;5037800;28;20059;-71
2022/07/24 09:46:08;;;;;;;10.18;9.18;;;26.30;99.90;;;;;;5052131;28;20068;-70
2022/07/24 09:48:50;;;;;;;9.95;8.68;;;26.20;99.90;;;;;;5050690;28;20501;-70
2022/07/24 09:51:22;;;;;;;10.85;9.80;;;26.10;99.90;;;;;;5025236;28;20103;-71
2022/07/24 09:53:56;;;;;;;9.52;8.48;;;26.00;99.90;;;;;;5031269;28;20037;-70
2022/07/24 09:56:29;;;;;;;11.38;8.82;;;26.10;99.90;;;;;;5050321;28;20463;-70
2022/07/24 09:59:02;;;;;;;10.05;9.13;;;26.00;99.90;;;;;;5050009;28;20041;-71
2022/07/24 10:01:36;;;;;;;9.98;8.98;;;26.00;99.90;;;;;;5051042;28;20123;-70
2022/07/24 10:04:13;;;;;;;9.70;8.80;;;26.00;99.90;;;;;;5050762;28;20040;-70
2022/07/24 10:06:47;;;;;;;9.80;8.80;;;25.90;99.90;;;;;;5052479;28;20041;-70
2022/07/24 10:09:23;;;;;;;10.00;9.05;;;25.90;99.90;;;;;;5051091;28;20048;-70
2022/07/24 10:11:57;;;;;;;9.77;8.88;;;25.90;99.90;;;;;;5032193;28;20108;-70
2022/07/24 10:14:29;;;;;;;9.95;8.95;;;26.00;99.90;;;;;;5033790;28;20413;-70
2022/07/24 10:17:07;;;;;;;9.75;8.85;;;26.10;99.90;;;;;;5048475;28;20042;-70
2022/07/24 10:19:46;;;;;;;10.05;9.13;;;26.10;99.90;;;;;;5051350;28;20052;-70
2022/07/24 10:22:21;;;;;;;10.77;9.77;;;26.20;99.90;;;;;;5044419;28;20052;-70
2022/07/24 10:25:07;;;;;;;10.93;8.77;;;26.20;99.90;;;;;;5045042;28;20043;-70
2022/07/24 10:27:41;;;;;;;10.88;9.70;;;26.30;99.90;;;;;;5043230;28;20052;-70
2022/07/24 10:30:13;;;;;;;9.80;8.90;;;26.40;99.90;;;;;;5023026;28;20057;-70
2022/07/24 10:32:41;;;;;;;9.82;8.82;;;26.40;99.90;;;;;;5029087;28;20103;-72
2022/07/24 10:35:18;;;;;;;9.98;8.95;;;26.40;99.90;;;;;;5045020;28;20048;-70
2022/07/24 10:38:19;;;;;;;12.10;8.80;;;26.40;99.90;;;;;;5049483;28;20464;-70
2022/07/24 10:41:02;;;;;;;10.40;9.50;;;26.40;99.90;;;;;;5045235;28;20083;-71
2022/07/24 10:43:34;;;;;;;10.00;9.10;;;26.40;99.90;;;;;;5050426;28;20045;-71
2022/07/24 10:46:01;;;;;;;9.88;8.88;;;26.70;99.90;;;;;;5047065;28;20131;-71
2022/07/24 10:48:35;;;;;;;9.75;8.75;;;27.10;99.90;;;;;;5032208;28;20080;-70
2022/07/24 10:51:08;;;;;;;10.35;9.45;;;27.40;99.60;;;;;;5023789;28;20045;-71
2022/07/24 10:53:40;;;;;;;9.90;8.90;;;27.60;98.10;;;;;;5032337;28;20044;-71
2022/07/24 10:56:23;;;;;;;9.73;8.93;;;27.70;98.80;;;;;;5046174;28;20056;-71
2022/07/24 10:58:58;;;;;;;9.38;8.52;;;27.50;97.50;;;;;;5044957;28;20036;-71
2022/07/24 11:01:44;;;;;;;9.55;8.50;;;27.40;97.60;;;;;;5044923;28;20051;-70
2022/07/24 11:04:18;;;;;;;9.88;8.98;;;27.30;98.10;;;;;;5047483;28;20049;-70
2022/07/24 11:07:09;;;;;;;11.35;9.13;;;27.30;97.80;;;;;;5047836;28;20049;-69
2022/07/24 11:09:53;;;;;;;9.75;8.73;;;27.60;97.80;;;;;;5030195;28;20041;-70
2022/07/24 11:12:30;;;;;;;8.98;8.18;;;27.90;97.60;;;;;;5042650;28;20045;-70
2022/07/24 11:17:54;;;;;;;10.10;9.20;;;28.40;95.30;;;;;;5044271;28;20712;-71
2022/07/24 11:20:34;;;;;;;9.60;8.70;;;28.30;94.00;;;;;;5042327;28;20044;-70
2022/07/24 11:23:20;;;;;;;9.18;8.45;;;28.50;94.80;;;;;;5047566;28;20043;-70
2022/07/24 11:26:30;;;;;;;9.15;8.45;;;28.70;95.00;;;;;;5041774;28;20037;-69
2022/07/24 11:29:18;;;;;;;9.50;8.55;;;28.90;93.60;;;;;;5045660;28;20056;-70
2022/07/24 11:31:56;;;;;;;9.15;8.20;;;29.20;93.70;;;;;;5027358;28;20045;-70
2022/07/24 11:34:29;;;;;;;9.63;8.43;;;29.20;92.90;;;;;;5042490;28;20572;-70
2022/07/24 11:37:02;;;;;;;8.93;7.95;;;29.10;93.10;;;;;;5043091;28;20074;-70
2022/07/24 11:39:36;;;;;;;9.45;8.55;;;29.20;93.10;;;;;;5048188;28;20048;-71
2022/07/24 11:42:07;;;;;;;9.07;8.35;;;29.40;91.80;;;;;;5037705;28;20091;-70
2022/07/24 11:44:49;;;;;;;9.45;7.82;;;29.40;90.80;;;;;;5026386;28;20056;-70
2022/07/24 11:47:23;;;;;;;9.43;8.57;;;29.60;91.70;;;;;;5046146;28;20052;-70
2022/07/24 11:50:02;;;;;;;8.60;7.90;;;29.80;90.90;;;;;;5044543;28;20044;-69
2022/07/24 11:52:37;;;;;;;9.70;8.90;;;30.00;91.10;;;;;;5049027;28;20037;-70
2022/07/24 11:55:14;;;;;;;8.45;7.68;;;30.20;87.70;;;;;;5025229;28;20043;-70
2022/07/24 11:57:49;;;;;;;8.77;8.07;;;30.20;88.60;;;;;;5047450;28;20037;-70
2022/07/24 12:00:24;;;;;;;9.88;8.95;;;30.30;90.10;;;;;;5043798;28;20049;-70
2022/07/24 12:03:01;;;;;;;9.55;8.75;;;30.30;85.60;;;;;;5031687;28;20040;-70
2022/07/24 12:05:37;;;;;;;10.13;9.23;;;30.20;84.10;;;;;;5026341;28;20041;-70
2022/07/24 12:08:18;;;;;;;9.07;8.23;;;30.10;85.20;;;;;;5049916;28;20036;-70
2022/07/24 12:10:59;;;;;;;8.70;8.00;;;30.10;84.80;;;;;;5046440;28;20041;-70
2022/07/24 12:13:32;;;;;;;8.70;7.88;;;30.10;84.50;;;;;;5048267;28;20667;-70
2022/07/24 12:16:04;;;;;;;9.93;8.93;;;30.00;85.30;;;;;;5047165;28;20045;-70
2022/07/24 12:18:36;;;;;;;11.00;8.52;;;29.90;83.90;;;;;;5053563;23;20048;-72
2022/07/24 12:21:09;;;;;;;9.97;8.93;;;29.70;83.70;;;;;;5030496;28;20073;-72
2022/07/24 12:23:41;;;;;;;9.77;8.98;;;29.60;84.60;;;;;;5019312;28;20292;-72
2022/07/24 12:26:13;;;;;;;9.50;8.68;;;29.40;82.40;;;;;;5009437;28;20041;-71
2022/07/24 12:28:44;;;;;;;8.40;7.63;;;29.30;83.40;;;;;;5019940;28;20128;-71
2022/07/24 12:31:16;;;;;;;9.60;8.70;;;29.30;84.70;;;;;;5029312;28;20037;-73
2022/07/24 12:33:53;;;;;;;9.40;8.65;;;29.20;83.20;;;;;;5027109;28;20065;-71
2022/07/24 12:36:26;;;;;;;9.98;8.30;;;29.10;81.70;;;;;;5024329;28;20084;-74
2022/07/24 12:38:58;;;;;;;9.32;8.48;;;29.10;81.90;;;;;;5004421;28;20050;-71
2022/07/24 12:41:30;;;;;;;8.60;7.90;;;29.20;80.70;;;;;;5015322;28;20052;-72
2022/07/24 12:44:05;;;;;;;8.65;7.95;;;29.40;79.90;;;;;;5027360;28;20040;-71
2022/07/24 12:46:39;;;;;;;10.50;7.97;;;29.60;79.50;;;;;;5032750;28;20085;-72
2022/07/24 12:49:15;;;;;;;8.32;7.53;;;29.80;79.40;;;;;;5010658;28;20680;-72
2022/07/24 12:51:51;;;;;;;8.40;7.70;;;29.90;77.80;;;;;;5026558;28;20030;-72
2022/07/24 12:54:31;;;;;;;8.82;7.20;;;30.10;79.20;;;;;;5025512;28;20044;-71
2022/07/24 12:57:11;;;;;;;7.97;7.32;;;30.00;75.70;;;;;;5032976;28;20408;-71
2022/07/24 12:59:44;;;;;;;8.98;8.18;;;30.10;77.00;;;;;;5030462;28;20049;-72
2022/07/24 13:02:23;;;;;;;8.98;7.82;;;30.30;76.30;;;;;;5034509;28;20048;-72
2022/07/24 13:04:59;;;;;;;8.90;8.00;;;30.60;76.90;;;;;;5001152;28;20038;-71